Terminal Aerodrome Forecast
Issued by NWS Austin/San Antonio, TX

Home | Current Version | Previous Version | Text Only | Print | Product List | Glossary On
Versions: 1 2 3 4 5 6 7 8 9 10 11 12 13 14 15 16 17 18 19 20 21
000
FTUS44 KEWX 290500
TAFSAT
TAF
KSAT 290537Z 2906/3012 VRB02KT P6SM SKC
     FM291000 00000KT 6SM BR SKC
     FM291500 00000KT P6SM FEW250
     FM291700 23004KT P6SM FEW250
     FM301000 21002KT P6SM SCT150=

USA.gov is the U.S. government's official web portal to all federal, state and local government web resources and services.